Time;durP1;ratioP1;P1;durP2;ratioP2;P2;SDS_P1;SDS_P2;PMS_P1;PMS_P2;Temp;Humidity;BMP_temperature;BMP_pressure;BME280_temperature;BME280_humidity;BME280_pressure;Samples;Min_cycle;Max_cycle;Signal;HPM_P1;HPM_P2
2022/11/02 00:00:35;;;;;;;26.05;18.70;;;;;;;;;;4977731;28;20027;-81
2022/11/02 00:03:01;;;;;;;33.75;23.95;;;;;;;;;;4976869;28;20037;-79
2022/11/02 00:05:30;;;;;;;33.55;22.23;;;;;;;;;;4975691;28;20026;-81
2022/11/02 00:07:56;;;;;;;37.45;24.17;;;;;;;;;;4976357;28;20491;-80
2022/11/02 00:10:22;;;;;;;32.10;21.33;;;;;;;;;;4977210;28;20034;-78
2022/11/02 00:12:48;;;;;;;34.67;22.58;;;;;;;;;;4976485;28;20042;-81
2022/11/02 00:15:15;;;;;;;33.95;21.50;;;;;;;;;;4976524;28;20026;-80
2022/11/02 00:17:42;;;;;;;32.85;20.55;;;;;;;;;;4976391;28;20038;-80
2022/11/02 00:20:09;;;;;;;32.75;22.00;;;;;;;;;;4976362;28;20031;-79
2022/11/02 00:22:36;;;;;;;26.80;18.27;;;;;;;;;;4976165;28;20042;-80
2022/11/02 00:25:02;;;;;;;28.83;19.95;;;;;;;;;;4975547;28;20101;-81
2022/11/02 00:27:29;;;;;;;27.63;18.38;;;;;;;;;;4974480;28;20482;-79
2022/11/02 00:29:55;;;;;;;27.15;18.45;;;;;;;;;;4976150;28;20176;-79
2022/11/02 00:32:21;;;;;;;25.98;17.48;;;;;;;;;;4975972;28;20442;-80
2022/11/02 00:34:47;;;;;;;23.92;17.55;;;;;;;;;;4977076;28;20031;-79
2022/11/02 00:37:13;;;;;;;26.13;17.65;;;;;;;;;;4977371;28;20089;-79
2022/11/02 00:39:39;;;;;;;23.70;16.88;;;;;;;;;;4977473;28;20577;-80
2022/11/02 00:42:05;;;;;;;25.52;17.80;;;;;;;;;;4976485;28;20382;-78
2022/11/02 00:44:31;;;;;;;21.73;16.52;;;;;;;;;;4969850;28;20023;-78
2022/11/02 00:46:57;;;;;;;23.75;17.23;;;;;;;;;;4955758;29;20027;-78
2022/11/02 00:49:23;;;;;;;26.52;18.15;;;;;;;;;;4970708;28;20045;-78
2022/11/02 00:51:49;;;;;;;24.20;16.90;;;;;;;;;;4974847;28;20054;-78
2022/11/02 00:54:15;;;;;;;25.35;17.83;;;;;;;;;;4974385;28;20055;-78
2022/11/02 00:56:41;;;;;;;25.70;17.70;;;;;;;;;;4974354;28;20658;-78
2022/11/02 00:59:07;;;;;;;24.40;17.77;;;;;;;;;;4975020;28;20395;-78
2022/11/02 01:01:33;;;;;;;22.08;16.17;;;;;;;;;;4974692;28;20031;-78
2022/11/02 01:03:59;;;;;;;24.33;17.40;;;;;;;;;;4974032;28;20041;-79
2022/11/02 01:06:25;;;;;;;22.25;16.83;;;;;;;;;;4973847;28;20030;-78
2022/11/02 01:08:51;;;;;;;28.40;19.13;;;;;;;;;;4974620;28;20066;-77
2022/11/02 01:11:19;;;;;;;26.17;18.30;;;;;;;;;;4974700;28;20113;-78
2022/11/02 01:13:45;;;;;;;28.40;19.33;;;;;;;;;;4974505;28;20026;-78
2022/11/02 01:16:11;;;;;;;27.15;18.50;;;;;;;;;;4973314;28;20459;-77
2022/11/02 01:18:38;;;;;;;26.77;18.08;;;;;;;;;;4974074;28;20376;-78
2022/11/02 01:21:04;;;;;;;26.45;19.30;;;;;;;;;;4974369;28;20058;-78
2022/11/02 01:23:32;;;;;;;28.83;19.15;;;;;;;;;;4974323;28;20031;-78
2022/11/02 01:25:58;;;;;;;28.63;20.13;;;;;;;;;;4973886;28;20456;-78
2022/11/02 01:28:24;;;;;;;32.15;20.13;;;;;;;;;;4974254;28;20388;-77
2022/11/02 01:30:50;;;;;;;27.75;19.20;;;;;;;;;;4974181;28;20015;-78
2022/11/02 01:33:16;;;;;;;31.35;20.33;;;;;;;;;;4974255;28;20449;-78
2022/11/02 01:35:42;;;;;;;29.20;19.40;;;;;;;;;;4973213;28;20038;-78
2022/11/02 01:38:08;;;;;;;28.17;19.33;;;;;;;;;;4973564;28;20510;-78
2022/11/02 01:40:34;;;;;;;23.65;18.08;;;;;;;;;;4974106;28;20035;-79
2022/11/02 01:43:00;;;;;;;27.42;19.63;;;;;;;;;;4973808;28;20395;-78
2022/11/02 01:45:27;;;;;;;27.10;18.60;;;;;;;;;;4973424;28;20502;-81
2022/11/02 01:47:53;;;;;;;25.35;18.15;;;;;;;;;;4974873;28;20050;-79
2022/11/02 01:50:22;;;;;;;24.70;18.13;;;;;;;;;;4973310;28;20031;-78
2022/11/02 01:52:49;;;;;;;25.52;18.60;;;;;;;;;;4973689;28;20031;-78
2022/11/02 01:55:22;;;;;;;25.23;17.48;;;;;;;;;;4973337;28;20031;-77
2022/11/02 01:57:52;;;;;;;23.15;17.85;;;;;;;;;;4973910;28;20030;-78
2022/11/02 02:00:18;;;;;;;24.27;16.90;;;;;;;;;;4973506;28;20045;-80
2022/11/02 02:03:17;;;;;;;22.98;16.13;;;;;;;;;;4973936;28;20027;-78
2022/11/02 02:05:52;;;;;;;25.08;16.40;;;;;;;;;;4934747;29;20116;-79
2022/11/02 02:08:19;;;;;;;22.85;15.95;;;;;;;;;;4932682;29;20389;-78
2022/11/02 02:10:45;;;;;;;23.85;16.25;;;;;;;;;;4932042;29;20035;-78
2022/11/02 02:13:11;;;;;;;22.98;16.02;;;;;;;;;;4932719;29;20384;-78
2022/11/02 02:15:56;;;;;;;21.65;14.50;;;;;;;;;;4932112;29;20524;-78
2022/11/02 02:18:26;;;;;;;25.00;16.77;;;;;;;;;;4940983;29;20527;-79
2022/11/02 02:21:03;;;;;;;25.25;17.08;;;;;;;;;;4951458;29;20047;-77
2022/11/02 02:23:30;;;;;;;24.27;16.30;;;;;;;;;;4951558;28;20407;-78
2022/11/02 02:26:01;;;;;;;24.50;16.88;;;;;;;;;;4951791;29;20491;-78
2022/11/02 02:28:36;;;;;;;24.73;16.07;;;;;;;;;;4932291;29;20050;-78
2022/11/02 02:31:05;;;;;;;23.25;15.60;;;;;;;;;;4932259;29;20424;-79
2022/11/02 02:33:31;;;;;;;24.90;16.13;;;;;;;;;;4932414;29;20039;-79
2022/11/02 02:36:06;;;;;;;22.67;15.95;;;;;;;;;;4932377;29;20051;-81
2022/11/02 02:38:34;;;;;;;22.52;16.00;;;;;;;;;;4940710;28;20086;-80
2022/11/02 02:41:17;;;;;;;23.83;15.57;;;;;;;;;;4961907;28;20051;-80
2022/11/02 02:43:45;;;;;;;23.15;16.13;;;;;;;;;;4973254;28;20026;-78
2022/11/02 02:46:19;;;;;;;23.88;15.73;;;;;;;;;;4972715;28;20487;-79
2022/11/02 02:48:46;;;;;;;23.27;16.80;;;;;;;;;;4973174;28;20030;-81
2022/11/02 02:51:15;;;;;;;23.30;15.48;;;;;;;;;;4974450;28;20031;-78
2022/11/02 02:53:50;;;;;;;22.58;14.80;;;;;;;;;;4972786;28;20030;-78
2022/11/02 02:56:18;;;;;;;24.20;15.30;;;;;;;;;;4972549;28;20049;-78
2022/11/02 02:58:51;;;;;;;26.60;16.92;;;;;;;;;;4972784;28;20038;-76
2022/11/02 03:01:18;;;;;;;25.83;17.08;;;;;;;;;;4972661;28;20037;-76
2022/11/02 03:03:44;;;;;;;23.88;16.33;;;;;;;;;;4972688;28;20022;-79
2022/11/02 03:06:16;;;;;;;24.50;16.17;;;;;;;;;;4972438;28;20058;-79
2022/11/02 03:08:47;;;;;;;22.83;15.70;;;;;;;;;;4972084;28;20018;-77
2022/11/02 03:11:15;;;;;;;23.13;16.67;;;;;;;;;;4972454;28;20475;-78
2022/11/02 03:13:56;;;;;;;22.80;16.35;;;;;;;;;;4973005;28;20035;-78
2022/11/02 03:16:35;;;;;;;23.92;15.32;;;;;;;;;;4972499;28;20094;-78
2022/11/02 03:19:01;;;;;;;23.08;15.85;;;;;;;;;;4972180;28;20455;-78
2022/11/02 03:21:37;;;;;;;22.65;16.27;;;;;;;;;;4972396;28;20122;-78
2022/11/02 03:24:11;;;;;;;25.77;15.13;;;;;;;;;;4972524;28;20093;-78
2022/11/02 03:27:09;;;;;;;20.05;14.45;;;;;;;;;;4972302;28;20027;-78
2022/11/02 03:29:42;;;;;;;21.73;14.90;;;;;;;;;;4949930;28;20474;-78
2022/11/02 03:32:17;;;;;;;21.05;14.60;;;;;;;;;;4972636;28;20113;-78
2022/11/02 03:34:52;;;;;;;24.15;15.18;;;;;;;;;;4973144;28;20114;-78
2022/11/02 03:37:18;;;;;;;22.55;14.23;;;;;;;;;;4972436;28;20047;-78
2022/11/02 03:39:49;;;;;;;20.85;14.43;;;;;;;;;;4972453;28;20035;-78
2022/11/02 03:42:26;;;;;;;19.67;13.43;;;;;;;;;;4972750;28;20082;-78
2022/11/02 03:44:57;;;;;;;21.30;13.90;;;;;;;;;;4972876;28;20030;-78
2022/11/02 03:47:24;;;;;;;19.45;13.50;;;;;;;;;;4972716;28;20054;-78
2022/11/02 03:49:52;;;;;;;21.10;13.88;;;;;;;;;;4972012;28;20522;-78
2022/11/02 03:52:20;;;;;;;18.48;13.25;;;;;;;;;;4973127;28;20034;-80
2022/11/02 03:55:05;;;;;;;22.15;14.88;;;;;;;;;;4976977;28;20057;-79
2022/11/02 03:57:45;;;;;;;20.77;14.27;;;;;;;;;;4976787;28;20042;-79
2022/11/02 04:00:13;;;;;;;20.08;13.18;;;;;;;;;;4975673;28;20047;-79
2022/11/02 04:02:40;;;;;;;20.73;13.82;;;;;;;;;;4976378;28;20031;-79
2022/11/02 04:05:06;;;;;;;21.75;13.57;;;;;;;;;;4977276;28;20050;-79
2022/11/02 04:08:19;;;;;;;20.50;13.45;;;;;;;;;;4976433;28;20038;-78
2022/11/02 04:10:20;;;;;;;21.63;14.50;;;;;;;;;;4976515;28;20045;-78
2022/11/02 04:15:31;;;;;;;22.60;15.35;;;;;;;;;;4976811;28;20445;-79
2022/11/02 04:20:41;;;;;;;22.08;15.80;;;;;;;;;;4976916;28;20093;-79
2022/11/02 04:25:55;;;;;;;21.23;15.43;;;;;;;;;;4977576;28;20038;-79
2022/11/02 04:28:21;;;;;;;23.25;16.35;;;;;;;;;;4971653;28;20038;-79
2022/11/02 04:30:47;;;;;;;21.50;14.70;;;;;;;;;;4957063;29;20037;-79
2022/11/02 04:33:33;;;;;;;23.77;15.52;;;;;;;;;;4958020;29;20051;-79
2022/11/02 04:36:00;;;;;;;20.73;14.48;;;;;;;;;;4957794;28;20109;-78
2022/11/02 04:38:41;;;;;;;23.20;16.83;;;;;;;;;;4972852;28;20029;-79
2022/11/02 04:43:53;;;;;;;21.88;14.55;;;;;;;;;;4980425;28;20030;-79
2022/11/02 04:46:20;;;;;;;20.95;13.70;;;;;;;;;;4980345;28;20588;-79
2022/11/02 04:48:46;;;;;;;24.20;15.27;;;;;;;;;;4979431;28;20105;-79
2022/11/02 04:51:12;;;;;;;22.98;15.07;;;;;;;;;;4979805;28;20081;-78
2022/11/02 04:53:38;;;;;;;22.42;15.75;;;;;;;;;;4979273;28;20054;-78
2022/11/02 04:56:04;;;;;;;24.33;16.75;;;;;;;;;;4979630;28;20495;-79
2022/11/02 04:58:30;;;;;;;26.92;16.67;;;;;;;;;;4979352;28;20034;-79
2022/11/02 05:00:56;;;;;;;22.83;16.45;;;;;;;;;;4979757;28;20031;-79
2022/11/02 05:03:22;;;;;;;26.45;16.08;;;;;;;;;;4980542;28;20034;-78
2022/11/02 05:05:53;;;;;;;25.23;16.63;;;;;;;;;;4980193;28;20023;-78
2022/11/02 05:08:19;;;;;;;26.63;16.23;;;;;;;;;;4979274;28;20033;-79
2022/11/02 05:10:45;;;;;;;21.38;15.32;;;;;;;;;;4979170;28;20026;-78
2022/11/02 05:13:11;;;;;;;23.20;16.15;;;;;;;;;;4979082;28;20027;-79
2022/11/02 05:15:40;;;;;;;28.13;17.55;;;;;;;;;;4967869;28;20058;-79
2022/11/02 05:18:06;;;;;;;25.75;17.40;;;;;;;;;;4980036;28;20078;-79
2022/11/02 05:20:32;;;;;;;26.95;18.85;;;;;;;;;;4979763;28;20539;-79
2022/11/02 05:22:58;;;;;;;29.60;18.13;;;;;;;;;;4979095;28;20047;-79
2022/11/02 05:25:24;;;;;;;24.17;15.82;;;;;;;;;;4979263;28;20019;-79
2022/11/02 05:27:50;;;;;;;26.63;18.02;;;;;;;;;;4979010;28;20431;-79
2022/11/02 05:30:17;;;;;;;27.60;18.95;;;;;;;;;;4977499;28;20473;-79
2022/11/02 05:32:42;;;;;;;25.90;17.33;;;;;;;;;;4978747;28;20434;-79
2022/11/02 05:35:09;;;;;;;25.67;18.08;;;;;;;;;;4978801;28;20045;-79
2022/11/02 05:37:35;;;;;;;26.35;17.30;;;;;;;;;;4978595;28;20058;-79
2022/11/02 05:40:01;;;;;;;22.40;17.25;;;;;;;;;;4979650;28;20023;-79
2022/11/02 05:42:27;;;;;;;22.33;15.07;;;;;;;;;;4977946;28;20038;-79
2022/11/02 05:44:53;;;;;;;24.05;16.13;;;;;;;;;;4979227;28;20483;-78
2022/11/02 05:47:19;;;;;;;26.98;17.95;;;;;;;;;;4978852;28;20466;-79
2022/11/02 05:49:45;;;;;;;28.25;19.02;;;;;;;;;;4979301;28;20031;-79
2022/11/02 05:52:11;;;;;;;24.48;17.33;;;;;;;;;;4977631;28;20102;-79
2022/11/02 05:54:37;;;;;;;25.92;17.83;;;;;;;;;;4978813;28;20085;-79
2022/11/02 05:57:03;;;;;;;23.98;16.98;;;;;;;;;;4978990;28;20069;-79
2022/11/02 05:59:29;;;;;;;24.63;15.57;;;;;;;;;;4977397;28;20023;-78
2022/11/02 06:01:56;;;;;;;23.00;16.85;;;;;;;;;;4978540;28;20027;-79
2022/11/02 06:04:22;;;;;;;23.88;15.63;;;;;;;;;;4978800;28;20054;-79
2022/11/02 06:06:48;;;;;;;23.73;15.88;;;;;;;;;;4978460;28;20039;-79
2022/11/02 06:09:14;;;;;;;22.98;15.57;;;;;;;;;;4978320;28;20146;-79
2022/11/02 06:11:41;;;;;;;24.27;16.35;;;;;;;;;;4978066;28;20119;-78
2022/11/02 06:14:07;;;;;;;24.42;16.23;;;;;;;;;;4978134;28;20118;-78
2022/11/02 06:16:33;;;;;;;25.00;16.65;;;;;;;;;;4977933;28;20023;-79
2022/11/02 06:18:59;;;;;;;22.55;15.57;;;;;;;;;;4978802;28;20039;-79
2022/11/02 06:21:25;;;;;;;24.55;16.60;;;;;;;;;;4977003;28;20058;-78
2022/11/02 06:23:51;;;;;;;24.92;17.45;;;;;;;;;;4978751;28;20438;-79
2022/11/02 06:26:17;;;;;;;31.00;19.45;;;;;;;;;;4978031;28;20507;-78
2022/11/02 06:28:43;;;;;;;26.73;17.17;;;;;;;;;;4978570;28;20023;-79
2022/11/02 06:31:09;;;;;;;23.83;16.80;;;;;;;;;;4977533;28;20025;-79
2022/11/02 06:33:35;;;;;;;27.27;20.20;;;;;;;;;;4978128;28;20034;-78
2022/11/02 06:36:01;;;;;;;26.98;17.48;;;;;;;;;;4978048;28;20442;-79
2022/11/02 06:38:27;;;;;;;25.92;17.50;;;;;;;;;;4977757;28;20019;-78
2022/11/02 06:41:05;;;;;;;28.13;19.58;;;;;;;;;;4975282;28;20102;-78
2022/11/02 06:43:31;;;;;;;24.95;17.50;;;;;;;;;;4977255;28;20054;-78
2022/11/02 06:45:57;;;;;;;25.23;18.35;;;;;;;;;;4977872;28;20034;-79
2022/11/02 06:48:24;;;;;;;26.60;18.13;;;;;;;;;;4977665;28;20042;-79
2022/11/02 06:50:53;;;;;;;24.90;18.58;;;;;;;;;;4977731;28;20023;-79
2022/11/02 06:53:19;;;;;;;28.25;20.35;;;;;;;;;;4976406;28;20407;-79
2022/11/02 06:55:45;;;;;;;24.25;17.42;;;;;;;;;;4977480;28;20031;-79
2022/11/02 06:58:11;;;;;;;24.02;17.38;;;;;;;;;;4977613;28;20019;-79
2022/11/02 07:00:37;;;;;;;29.25;19.25;;;;;;;;;;4977517;28;20027;-79
2022/11/02 07:03:04;;;;;;;25.85;18.30;;;;;;;;;;4977097;28;20091;-79
2022/11/02 07:05:30;;;;;;;26.52;18.17;;;;;;;;;;4975707;28;20018;-79
2022/11/02 07:07:56;;;;;;;28.08;21.77;;;;;;;;;;4978155;28;20038;-79
2022/11/02 07:10:22;;;;;;;29.98;20.08;;;;;;;;;;4977575;28;20022;-78
2022/11/02 07:12:51;;;;;;;25.75;16.40;;;;;;;;;;4977694;28;20035;-79
2022/11/02 07:15:17;;;;;;;24.40;17.65;;;;;;;;;;4975626;28;20487;-79
2022/11/02 07:17:43;;;;;;;24.25;16.88;;;;;;;;;;4972017;28;20038;-78
2022/11/02 07:20:10;;;;;;;23.05;15.55;;;;;;;;;;4971880;28;20026;-79
2022/11/02 07:22:36;;;;;;;22.27;16.13;;;;;;;;;;4972594;28;20172;-80
2022/11/02 07:25:02;;;;;;;22.05;15.20;;;;;;;;;;4972348;28;20053;-79
2022/11/02 07:27:28;;;;;;;19.92;14.30;;;;;;;;;;4972940;28;20018;-80
2022/11/02 07:29:54;;;;;;;21.63;15.23;;;;;;;;;;4972089;28;20026;-79
2022/11/02 07:32:20;;;;;;;21.33;14.95;;;;;;;;;;4972772;28;20061;-79
2022/11/02 07:34:46;;;;;;;23.55;15.50;;;;;;;;;;4972151;28;20058;-80
2022/11/02 07:37:12;;;;;;;23.50;14.82;;;;;;;;;;4972374;28;20054;-79
2022/11/02 07:39:38;;;;;;;24.35;15.27;;;;;;;;;;4972718;28;20546;-79
2022/11/02 07:42:06;;;;;;;26.15;15.55;;;;;;;;;;4972519;28;20033;-79
2022/11/02 07:44:32;;;;;;;20.25;15.15;;;;;;;;;;4971921;28;20023;-78
2022/11/02 07:46:58;;;;;;;32.42;18.55;;;;;;;;;;4972375;28;20446;-79
2022/11/02 07:49:24;;;;;;;22.92;16.63;;;;;;;;;;4972606;28;20026;-79
2022/11/02 07:51:50;;;;;;;25.40;17.08;;;;;;;;;;4971620;28;20023;-79
2022/11/02 07:54:16;;;;;;;26.20;16.42;;;;;;;;;;4972551;28;20035;-78
2022/11/02 07:56:44;;;;;;;25.35;17.17;;;;;;;;;;4972284;28;20027;-79
2022/11/02 07:59:11;;;;;;;24.63;17.13;;;;;;;;;;4971136;28;20550;-79
2022/11/02 08:01:38;;;;;;;23.70;15.45;;;;;;;;;;4971603;28;20122;-79
2022/11/02 08:04:04;;;;;;;22.60;16.02;;;;;;;;;;4972329;28;20023;-79
2022/11/02 08:06:30;;;;;;;21.35;15.98;;;;;;;;;;4972607;28;20031;-81
2022/11/02 08:08:56;;;;;;;21.58;15.18;;;;;;;;;;4971957;28;20431;-79
2022/11/02 08:11:22;;;;;;;21.08;14.57;;;;;;;;;;4972166;28;20019;-79
2022/11/02 08:13:48;;;;;;;20.73;14.02;;;;;;;;;;4972422;28;20026;-80
2022/11/02 08:16:14;;;;;;;22.88;15.35;;;;;;;;;;4974639;28;20049;-79
2022/11/02 08:18:40;;;;;;;21.33;15.30;;;;;;;;;;4978528;28;20031;-79
2022/11/02 08:21:07;;;;;;;24.13;15.90;;;;;;;;;;4985274;28;20046;-77
2022/11/02 08:23:33;;;;;;;20.45;15.02;;;;;;;;;;4985430;28;20194;-77
2022/11/02 08:25:59;;;;;;;19.65;13.48;;;;;;;;;;4983903;28;20023;-77
2022/11/02 08:28:38;;;;;;;23.02;15.23;;;;;;;;;;4984553;28;20335;-77
2022/11/02 08:31:06;;;;;;;19.90;14.20;;;;;;;;;;4986113;28;20038;-78
2022/11/02 08:33:32;;;;;;;18.50;12.93;;;;;;;;;;4986950;28;20030;-78
2022/11/02 08:36:03;;;;;;;17.15;12.80;;;;;;;;;;4985653;28;20031;-78
2022/11/02 08:38:29;;;;;;;15.82;12.27;;;;;;;;;;4996616;28;20059;-79
2022/11/02 08:40:55;;;;;;;19.17;12.73;;;;;;;;;;4997984;28;20019;-79
2022/11/02 08:43:21;;;;;;;17.92;12.48;;;;;;;;;;4994145;28;20046;-80
2022/11/02 08:45:47;;;;;;;16.48;11.88;;;;;;;;;;4983657;28;20034;-80
2022/11/02 08:48:13;;;;;;;18.08;12.98;;;;;;;;;;4984661;28;20031;-80
2022/11/02 08:50:39;;;;;;;19.88;12.60;;;;;;;;;;4985150;28;20086;-81
2022/11/02 08:53:05;;;;;;;16.65;12.20;;;;;;;;;;4986855;28;20038;-81
2022/11/02 08:55:31;;;;;;;19.20;13.85;;;;;;;;;;4982994;28;20035;-81
2022/11/02 08:57:58;;;;;;;17.65;13.32;;;;;;;;;;4984026;28;20051;-81
2022/11/02 09:00:25;;;;;;;21.90;14.70;;;;;;;;;;4985203;28;20027;-81
2022/11/02 09:03:02;;;;;;;24.67;15.82;;;;;;;;;;4987276;28;20030;-81
2022/11/02 09:05:29;;;;;;;22.58;14.18;;;;;;;;;;4966238;28;20015;-81
2022/11/02 09:08:05;;;;;;;17.77;12.48;;;;;;;;;;4964550;29;20384;-81
2022/11/02 09:10:33;;;;;;;17.48;11.93;;;;;;;;;;4964220;28;20063;-81
2022/11/02 09:12:59;;;;;;;18.60;12.48;;;;;;;;;;4967841;28;20031;-81
2022/11/02 09:15:26;;;;;;;19.95;13.75;;;;;;;;;;4982516;28;20035;-80
2022/11/02 09:17:51;;;;;;;25.92;14.88;;;;;;;;;;4982265;28;20117;-81
2022/11/02 09:20:18;;;;;;;20.17;13.35;;;;;;;;;;4981511;28;20054;-80
2022/11/02 09:22:44;;;;;;;18.75;13.80;;;;;;;;;;4981727;28;20062;-80
2022/11/02 09:25:11;;;;;;;18.27;12.88;;;;;;;;;;4981366;28;20030;-81
2022/11/02 09:27:37;;;;;;;20.65;14.57;;;;;;;;;;4980596;28;20031;-81
2022/11/02 09:30:04;;;;;;;19.25;13.68;;;;;;;;;;4981439;28;20105;-81
2022/11/02 09:32:32;;;;;;;18.00;13.88;;;;;;;;;;4980616;28;20390;-80
2022/11/02 09:34:58;;;;;;;16.45;11.95;;;;;;;;;;4962223;28;20051;-81
2022/11/02 09:37:24;;;;;;;21.13;13.07;;;;;;;;;;4962301;29;20031;-79
2022/11/02 09:39:50;;;;;;;17.77;12.35;;;;;;;;;;4960341;29;20054;-79
2022/11/02 09:42:16;;;;;;;21.02;12.63;;;;;;;;;;4960834;29;20036;-79
2022/11/02 09:44:49;;;;;;;18.15;12.23;;;;;;;;;;4978123;28;20086;-80
2022/11/02 09:47:15;;;;;;;15.45;12.27;;;;;;;;;;4979837;28;20031;-79
2022/11/02 09:49:42;;;;;;;10.13;4.90;;;;;;;;;;4979202;28;20435;-80
2022/11/02 09:52:11;;;;;;;7.10;4.05;;;;;;;;;;4978566;28;20023;-79
2022/11/02 09:54:43;;;;;;;8.57;4.70;;;;;;;;;;4978061;28;20109;-79
2022/11/02 09:57:14;;;;;;;7.32;4.35;;;;;;;;;;4979200;28;20034;-79
2022/11/02 09:59:41;;;;;;;8.15;4.10;;;;;;;;;;4979636;28;20038;-79
2022/11/02 10:02:16;;;;;;;8.73;5.07;;;;;;;;;;4978497;28;20023;-79
2022/11/02 10:04:42;;;;;;;7.45;4.63;;;;;;;;;;4978712;28;20023;-79
2022/11/02 10:07:34;;;;;;;7.50;5.05;;;;;;;;;;4977259;28;20023;-79
2022/11/02 10:10:02;;;;;;;10.60;5.63;;;;;;;;;;4969162;28;20054;-79
2022/11/02 10:12:34;;;;;;;9.05;4.68;;;;;;;;;;4978237;28;20031;-79
2022/11/02 10:15:14;;;;;;;10.25;6.25;;;;;;;;;;4978420;28;20046;-79
2022/11/02 10:17:42;;;;;;;8.93;4.82;;;;;;;;;;4978104;28;20483;-80
2022/11/02 10:20:16;;;;;;;9.57;5.20;;;;;;;;;;4977693;28;20099;-81
2022/11/02 10:22:43;;;;;;;8.23;5.45;;;;;;;;;;4978567;28;20027;-79
2022/11/02 10:25:11;;;;;;;6.35;3.58;;;;;;;;;;4978102;28;20073;-79
2022/11/02 10:27:38;;;;;;;8.57;4.55;;;;;;;;;;4978274;28;20085;-80
2022/11/02 10:30:13;;;;;;;6.57;3.60;;;;;;;;;;4977278;28;20031;-79
2022/11/02 10:32:40;;;;;;;7.43;4.00;;;;;;;;;;4978168;28;20015;-79
2022/11/02 10:35:15;;;;;;;10.00;4.38;;;;;;;;;;4978272;28;20033;-80
2022/11/02 10:37:53;;;;;;;7.25;3.65;;;;;;;;;;4977639;28;20031;-79
2022/11/02 10:40:35;;;;;;;10.93;4.90;;;;;;;;;;4977447;28;20129;-79
2022/11/02 10:43:20;;;;;;;5.95;3.53;;;;;;;;;;4975756;28;20039;-79
2022/11/02 10:45:48;;;;;;;5.60;3.22;;;;;;;;;;4978277;28;20030;-79
2022/11/02 10:48:20;;;;;;;5.65;3.15;;;;;;;;;;4976770;28;20026;-79
2022/11/02 10:51:05;;;;;;;8.45;3.97;;;;;;;;;;4976092;28;20050;-78
2022/11/02 10:53:35;;;;;;;6.95;3.38;;;;;;;;;;4957480;29;20082;-79
2022/11/02 10:56:01;;;;;;;5.93;3.28;;;;;;;;;;4960246;28;20039;-79
2022/11/02 10:58:28;;;;;;;5.82;3.00;;;;;;;;;;4974546;28;20034;-79
2022/11/02 11:01:10;;;;;;;6.43;3.22;;;;;;;;;;4968250;28;20035;-80
2022/11/02 11:03:55;;;;;;;6.60;2.88;;;;;;;;;;4967984;28;20046;-79
2022/11/02 11:06:22;;;;;;;7.13;3.13;;;;;;;;;;4967891;28;20031;-80
2022/11/02 11:08:48;;;;;;;6.10;3.22;;;;;;;;;;4970432;28;20019;-80
2022/11/02 11:11:17;;;;;;;6.30;3.30;;;;;;;;;;4970075;28;20048;-78
2022/11/02 11:13:45;;;;;;;7.53;2.83;;;;;;;;;;4970584;28;20022;-79
2022/11/02 11:16:11;;;;;;;5.60;3.08;;;;;;;;;;4970122;28;20037;-81
2022/11/02 11:18:37;;;;;;;7.28;3.88;;;;;;;;;;4972212;28;20031;-79
2022/11/02 11:21:05;;;;;;;6.97;3.63;;;;;;;;;;4970203;28;20042;-76
2022/11/02 11:23:31;;;;;;;6.63;3.35;;;;;;;;;;4970675;28;20045;-78
2022/11/02 11:25:59;;;;;;;6.25;3.20;;;;;;;;;;4969027;28;20019;-79
2022/11/02 11:28:41;;;;;;;7.60;3.90;;;;;;;;;;4963178;28;20027;-78
2022/11/02 11:31:12;;;;;;;5.38;3.08;;;;;;;;;;4985019;28;20065;-78
2022/11/02 11:33:43;;;;;;;8.10;3.72;;;;;;;;;;4970219;28;20121;-78
2022/11/02 11:36:09;;;;;;;6.82;3.08;;;;;;;;;;4965156;28;20041;-79
2022/11/02 11:38:36;;;;;;;8.43;4.25;;;;;;;;;;4967908;28;20078;-78
2022/11/02 11:41:02;;;;;;;7.97;3.85;;;;;;;;;;4966157;28;20038;-79
2022/11/02 11:43:30;;;;;;;6.68;3.40;;;;;;;;;;4969559;28;20026;-80
2022/11/02 11:46:00;;;;;;;8.35;3.67;;;;;;;;;;4964515;28;20021;-80
2022/11/02 11:48:45;;;;;;;7.35;3.42;;;;;;;;;;4977295;28;20050;-82
2022/11/02 11:51:34;;;;;;;6.18;3.47;;;;;;;;;;4976276;28;20034;-80
2022/11/02 11:54:05;;;;;;;7.47;3.33;;;;;;;;;;4975172;28;20043;-81
2022/11/02 11:56:31;;;;;;;7.25;3.45;;;;;;;;;;4968879;28;20123;-80
2022/11/02 11:58:57;;;;;;;6.60;3.63;;;;;;;;;;4960489;28;20034;-81
2022/11/02 12:01:24;;;;;;;5.63;3.25;;;;;;;;;;4972065;28;20045;-81
2022/11/02 12:03:54;;;;;;;6.43;3.08;;;;;;;;;;4967717;28;20035;-82
2022/11/02 12:06:26;;;;;;;6.20;3.65;;;;;;;;;;4965893;28;20038;-82
2022/11/02 12:08:55;;;;;;;6.65;3.63;;;;;;;;;;4975737;28;20141;-81
2022/11/02 12:11:21;;;;;;;6.60;3.97;;;;;;;;;;4978193;28;20050;-82
2022/11/02 12:13:53;;;;;;;9.52;4.30;;;;;;;;;;4978289;28;20023;-82
2022/11/02 12:16:42;;;;;;;6.97;3.90;;;;;;;;;;4970719;28;20050;-83
2022/11/02 12:19:16;;;;;;;7.47;3.42;;;;;;;;;;4969140;28;20047;-81
2022/11/02 12:21:57;;;;;;;7.32;3.47;;;;;;;;;;4979215;28;20046;-81
2022/11/02 12:24:31;;;;;;;7.45;3.72;;;;;;;;;;4975416;28;20041;-81
2022/11/02 12:27:10;;;;;;;10.23;4.18;;;;;;;;;;4975151;28;20431;-82
2022/11/02 12:29:42;;;;;;;5.95;3.45;;;;;;;;;;4969976;28;20082;-82
2022/11/02 12:32:20;;;;;;;7.20;3.80;;;;;;;;;;4978154;28;20569;-82
2022/11/02 12:35:06;;;;;;;5.63;3.53;;;;;;;;;;4981149;28;20061;-82
2022/11/02 12:37:38;;;;;;;5.88;3.28;;;;;;;;;;4979938;28;20525;-82
2022/11/02 12:40:16;;;;;;;6.40;3.40;;;;;;;;;;4979127;28;20045;-82
2022/11/02 12:42:51;;;;;;;6.72;3.65;;;;;;;;;;4979816;28;20022;-81
2022/11/02 12:45:24;;;;;;;7.38;3.58;;;;;;;;;;4980086;28;20027;-82
2022/11/02 12:47:56;;;;;;;6.35;3.38;;;;;;;;;;4982117;28;20498;-82
2022/11/02 12:50:46;;;;;;;6.88;3.28;;;;;;;;;;4978793;28;20030;-81
2022/11/02 12:53:21;;;;;;;7.97;3.33;;;;;;;;;;4977441;28;20121;-80
2022/11/02 12:55:49;;;;;;;6.68;3.38;;;;;;;;;;4978484;28;20023;-82
2022/11/02 12:58:19;;;;;;;5.53;3.13;;;;;;;;;;4980090;28;20031;-83
2022/11/02 13:00:47;;;;;;;4.85;2.67;;;;;;;;;;4976060;28;20354;-80
2022/11/02 13:03:16;;;;;;;5.75;2.90;;;;;;;;;;4975191;28;20030;-79
2022/11/02 13:05:45;;;;;;;7.20;3.05;;;;;;;;;;4975083;28;20027;-78
2022/11/02 13:08:14;;;;;;;5.72;3.05;;;;;;;;;;4972554;28;20027;-79
2022/11/02 13:10:43;;;;;;;5.18;2.80;;;;;;;;;;4956372;28;20033;-80
2022/11/02 13:13:13;;;;;;;7.35;3.15;;;;;;;;;;4960270;28;20026;-79
2022/11/02 13:15:40;;;;;;;7.05;3.28;;;;;;;;;;4971957;28;20121;-80
2022/11/02 13:18:10;;;;;;;7.07;3.75;;;;;;;;;;4973110;28;20053;-80
2022/11/02 13:20:42;;;;;;;6.82;4.10;;;;;;;;;;4966629;28;20106;-80
2022/11/02 13:23:27;;;;;;;8.90;3.45;;;;;;;;;;4974024;28;20077;-80
2022/11/02 13:25:58;;;;;;;8.38;3.40;;;;;;;;;;4977165;28;20045;-80
2022/11/02 13:28:33;;;;;;;6.70;2.83;;;;;;;;;;4978543;28;20018;-79
2022/11/02 13:30:59;;;;;;;7.30;3.00;;;;;;;;;;4978010;28;20043;-79
2022/11/02 13:33:42;;;;;;;5.07;2.70;;;;;;;;;;4978762;28;20035;-80
2022/11/02 13:36:09;;;;;;;6.20;2.90;;;;;;;;;;4976572;28;20039;-79
2022/11/02 13:38:38;;;;;;;6.43;3.17;;;;;;;;;;4974119;28;20538;-80
2022/11/02 13:41:07;;;;;;;5.80;2.60;;;;;;;;;;4975685;28;20035;-79
2022/11/02 13:43:48;;;;;;;6.93;2.78;;;;;;;;;;4973974;28;20027;-78
2022/11/02 13:46:17;;;;;;;6.22;2.50;;;;;;;;;;4974904;28;20077;-78
2022/11/02 13:48:53;;;;;;;7.82;2.78;;;;;;;;;;4974520;28;20054;-79
2022/11/02 13:51:24;;;;;;;6.55;2.90;;;;;;;;;;4972976;28;20542;-78
2022/11/02 13:54:00;;;;;;;5.93;2.95;;;;;;;;;;4976801;28;20030;-82
2022/11/02 13:56:28;;;;;;;6.75;3.13;;;;;;;;;;4977234;28;20040;-79
2022/11/02 13:59:17;;;;;;;7.68;3.75;;;;;;;;;;4977027;28;20038;-81
2022/11/02 14:01:44;;;;;;;7.43;2.97;;;;;;;;;;4974031;28;20031;-83
2022/11/02 14:04:11;;;;;;;6.65;3.00;;;;;;;;;;4992488;28;20034;-81
2022/11/02 14:07:03;;;;;;;6.40;2.70;;;;;;;;;;4977717;28;20022;-81
2022/11/02 14:09:33;;;;;;;5.13;2.63;;;;;;;;;;4960332;28;20054;-81
2022/11/02 14:12:12;;;;;;;7.65;3.03;;;;;;;;;;4978032;28;20108;-82
2022/11/02 14:14:39;;;;;;;5.30;2.92;;;;;;;;;;4972258;28;20120;-82
2022/11/02 14:17:12;;;;;;;5.93;2.67;;;;;;;;;;4972681;28;20062;-80
2022/11/02 14:19:47;;;;;;;5.10;2.10;;;;;;;;;;4975787;28;20557;-81
2022/11/02 14:22:14;;;;;;;7.13;2.85;;;;;;;;;;4977115;28;20529;-81
2022/11/02 14:24:40;;;;;;;6.72;2.70;;;;;;;;;;4976780;28;20057;-80
2022/11/02 14:27:12;;;;;;;8.25;3.45;;;;;;;;;;4972629;28;20372;-80
2022/11/02 14:29:43;;;;;;;5.73;3.23;;;;;;;;;;4974393;28;20072;-79
2022/11/02 14:32:19;;;;;;;7.93;3.38;;;;;;;;;;4964446;28;20053;-80
2022/11/02 14:34:57;;;;;;;6.75;2.95;;;;;;;;;;4974200;28;20033;-78
2022/11/02 14:37:26;;;;;;;7.63;2.83;;;;;;;;;;4976004;28;20023;-82
2022/11/02 14:39:59;;;;;;;5.70;2.50;;;;;;;;;;4973131;28;20078;-79
2022/11/02 14:42:40;;;;;;;6.05;3.00;;;;;;;;;;4974281;28;20026;-81
2022/11/02 14:45:06;;;;;;;6.40;2.63;;;;;;;;;;4975826;28;20082;-78
2022/11/02 14:47:34;;;;;;;6.20;2.88;;;;;;;;;;4972440;28;20038;-78
2022/11/02 14:50:08;;;;;;;9.13;3.83;;;;;;;;;;4971880;28;20034;-79